Archiv-/Tagesdaten

--Timestamp---	Temp	Chill	HIndex	Humid	Dewpt	 Wind 	HiWind	WindDir	Rain 	Barom	Solar	 ET  	 UV 
--------------	----	-----	------	-----	-----	------	------	-------	-----	-----	-----	-----	----
20091126 00:00	6.0	4.8	6.0	71	1.1	6	8	180	0.0	1012.8	0	0.025	0.0
20091126 00:05	6.0	6.0	6.0	71	1.1	5	8	180	0.0	1012.7	0	0.000	0.0
20091126 00:10	6.1	6.1	6.1	70	1.0	5	10	202	0.0	1012.7	0	0.000	0.0
20091126 00:15	6.2	4.9	6.2	69	0.9	6	10	202	0.0	1012.8	0	0.000	0.0
20091126 00:20	6.3	4.6	6.3	69	1.0	8	11	202	0.0	1012.8	0	0.000	0.0
20091126 00:25	6.3	4.7	6.3	68	0.9	8	14	202	0.0	1012.8	0	0.000	0.0
20091126 00:30	6.4	4.4	6.4	68	0.9	10	16	202	0.0	1012.8	0	0.000	0.0
20091126 00:35	6.5	4.5	6.5	67	0.8	10	16	202	0.0	1012.7	0	0.000	0.0
20091126 00:40	6.4	4.8	6.4	67	0.8	8	14	202	0.0	1012.7	0	0.000	0.0
20091126 00:45	6.4	4.8	6.4	68	0.9	8	14	225	0.0	1012.7	0	0.000	0.0
20091126 00:50	6.3	4.6	6.3	68	0.8	8	14	202	0.0	1012.8	0	0.000	0.0
20091126 00:55	6.2	4.2	6.2	68	0.8	10	14	202	0.0	1012.7	0	0.000	0.0
20091126 01:00	6.3	4.3	6.3	67	0.6	10	16	202	0.0	1012.6	0	0.025	0.0
20091126 01:05	6.3	5.1	6.3	67	0.7	6	11	202	0.0	1012.6	0	0.000	0.0
20091126 01:10	6.4	6.4	6.4	67	0.7	5	11	202	0.0	1012.7	0	0.000	0.0
20091126 01:15	6.5	5.3	6.5	66	0.6	6	11	180	0.0	1012.7	0	0.000	0.0
20091126 01:20	6.7	6.7	6.7	65	0.6	5	8	202	0.0	1012.7	0	0.000	0.0
20091126 01:25	6.7	6.7	6.7	65	0.6	3	6	202	0.0	1012.6	0	0.000	0.0
20091126 01:30	6.7	6.7	6.7	66	0.8	3	5	202	0.0	1012.7	0	0.000	0.0
20091126 01:35	6.6	6.6	6.6	66	0.7	3	6	202	0.0	1012.6	0	0.000	0.0
20091126 01:40	6.6	5.5	6.6	65	0.5	6	11	202	0.0	1012.6	0	0.000	0.0
20091126 01:45	6.8	4.9	6.8	65	0.7	10	14	202	0.0	1012.7	0	0.000	0.0
20091126 01:50	7.1	5.6	7.1	64	0.7	8	11	202	0.0	1012.5	0	0.000	0.0
20091126 01:55	7.2	6.2	7.2	64	0.9	6	14	202	0.0	1012.5	0	0.000	0.0
20091126 02:00	7.4	7.4	7.4	63	0.8	5	8	202	0.0	1012.5	0	0.025	0.0
20091126 02:05	7.4	7.4	7.4	63	0.9	3	8	202	0.0	1012.7	0	0.000	0.0
20091126 02:10	7.6	7.6	7.6	63	1.0	5	6	202	0.0	1012.6	0	0.000	0.0
20091126 02:15	7.6	7.6	7.6	63	1.0	3	8	202	0.0	1012.7	0	0.000	0.0
20091126 02:20	7.6	7.6	7.6	63	1.0	3	8	202	0.0	1012.7	0	0.000	0.0
20091126 02:25	7.6	7.6	7.6	63	1.0	5	10	225	0.0	1012.8	0	0.000	0.0
20091126 02:30	7.7	7.7	7.7	63	1.1	5	8	225	0.0	1012.9	0	0.000	0.0
20091126 02:35	7.6	7.6	7.6	63	1.0	5	11	225	0.0	1012.9	0	0.000	0.0
20091126 02:40	7.7	7.7	7.7	63	1.1	3	8	202	0.0	1012.9	0	0.000	0.0
20091126 02:45	7.7	7.7	7.7	63	1.1	5	10	202	0.0	1012.9	0	0.000	0.0
20091126 02:50	7.8	6.8	7.8	62	1.0	6	11	202	0.0	1012.9	0	0.000	0.0
20091126 02:55	7.8	6.9	7.8	63	1.2	6	10	202	0.0	1013.0	0	0.000	0.0
20091126 03:00	7.8	7.8	7.8	63	1.2	5	10	202	0.0	1013.0	0	0.025	0.0
20091126 03:05	7.7	7.7	7.7	63	1.1	5	10	202	0.0	1013.3	0	0.000	0.0
20091126 03:10	7.7	6.7	7.7	64	1.3	6	10	202	0.0	1013.3	0	0.000	0.0
20091126 03:15	7.6	6.1	7.6	64	1.2	8	11	202	0.0	1013.3	0	0.000	0.0
20091126 03:20	7.5	6.1	7.5	65	1.3	8	11	202	0.0	1013.4	0	0.000	0.0
20091126 03:25	7.4	5.9	7.4	65	1.2	8	11	202	0.0	1013.4	0	0.000	0.0
20091126 03:30	7.3	5.9	7.3	66	1.4	8	11	202	0.0	1013.5	0	0.000	0.0
20091126 03:35	7.3	5.5	7.3	66	1.3	10	16	202	0.0	1013.5	0	0.000	0.0
20091126 03:40	7.2	5.7	7.2	66	1.3	8	13	202	0.0	1013.5	0	0.000	0.0
20091126 03:45	7.2	5.7	7.2	67	1.5	8	13	202	0.0	1013.5	0	0.000	0.0
20091126 03:50	7.1	5.6	7.1	68	1.6	8	11	202	0.0	1013.5	0	0.000	0.0
20091126 03:55	7.0	5.5	7.0	68	1.5	8	13	202	0.0	1013.5	0	0.000	0.0
20091126 04:00	7.0	5.9	7.0	67	1.3	6	11	202	0.0	1013.5	0	0.051	0.0
20091126 04:05	7.1	7.1	7.1	68	1.6	5	10	202	0.0	1013.9	0	0.000	0.0
20091126 04:10	7.1	7.1	7.1	67	1.4	5	10	202	0.0	1013.9	0	0.000	0.0
20091126 04:15	7.2	7.2	7.2	67	1.5	5	8	202	0.0	1013.9	0	0.000	0.0
20091126 04:20	7.2	7.2	7.2	67	1.5	3	8	202	0.0	1013.9	0	0.000	0.0
20091126 04:25	7.1	7.1	7.1	67	1.4	5	8	202	0.0	1013.9	0	0.000	0.0
20091126 04:30	7.1	7.1	7.1	68	1.6	5	8	202	0.0	1014.0	0	0.000	0.0
20091126 04:35	7.1	6.0	7.1	68	1.6	6	10	225	0.0	1014.1	0	0.000	0.0
20091126 04:40	7.0	5.9	7.0	69	1.7	6	10	202	0.0	1014.1	0	0.000	0.0
20091126 04:45	6.9	6.9	6.9	69	1.7	5	8	225	0.0	1014.2	0	0.000	0.0
20091126 04:50	6.8	6.8	6.8	70	1.7	5	8	225	0.0	1014.4	0	0.000	0.0
20091126 04:55	6.8	6.8	6.8	71	1.9	5	6	225	0.0	1014.5	0	0.000	0.0
20091126 05:00	6.7	6.7	6.7	71	1.8	3	6	225	0.0	1014.4	0	0.025	0.0
20091126 05:05	6.7	6.7	6.7	72	2.0	2	5	225	0.0	1014.5	0	0.000	0.0
20091126 05:10	6.7	6.7	6.7	72	2.0	3	6	248	0.0	1014.5	0	0.000	0.0
20091126 05:15	6.9	6.9	6.9	72	2.2	5	8	248	0.0	1014.5	0	0.000	0.0
20091126 05:20	7.1	7.1	7.1	72	2.4	3	10	270	0.0	1014.7	0	0.000	0.0
20091126 05:25	7.2	7.2	7.2	72	2.5	2	5	270	0.0	1014.7	0	0.000	0.0
20091126 05:30	7.1	7.1	7.1	72	2.4	2	5	270	0.0	1014.7	0	0.000	0.0
20091126 05:35	7.1	7.1	7.1	73	2.6	2	5	270	0.0	1014.8	0	0.000	0.0
20091126 05:40	7.1	7.1	7.1	73	2.5	3	8	270	0.0	1014.8	0	0.000	0.0
20091126 05:45	7.0	7.0	7.0	73	2.5	2	6	225	0.0	1014.8	0	0.000	0.0
20091126 05:50	6.9	6.9	6.9	74	2.6	2	5	225	0.0	1014.7	0	0.000	0.0
20091126 05:55	6.9	6.9	6.9	74	2.6	2	5	225	0.0	1014.7	0	0.000	0.0
20091126 06:00	6.9	6.9	6.9	74	2.6	2	6	225	0.0	1014.9	0	0.025	0.0
20091126 06:05	6.9	6.9	6.9	75	2.8	2	6	225	0.0	1015.0	0	0.000	0.0
20091126 06:10	7.3	7.3	7.3	75	3.2	3	8	225	0.0	1014.9	0	0.000	0.0
20091126 06:15	7.7	7.7	7.7	74	3.3	3	8	225	0.0	1015.0	0	0.000	0.0
20091126 06:20	7.9	7.9	7.9	74	3.5	5	8	270	0.0	1015.0	0	0.000	0.0
20091126 06:25	8.0	8.0	8.0	74	3.7	3	8	270	0.0	1014.9	0	0.000	0.0
20091126 06:30	8.0	8.0	8.0	74	3.7	3	8	248	0.0	1014.9	0	0.000	0.0
20091126 06:35	7.9	7.9	7.9	74	3.6	3	8	248	0.0	1014.9	0	0.000	0.0
20091126 06:40	7.9	7.9	7.9	75	3.7	3	16	248	0.0	1014.9	0	0.000	0.0
20091126 06:45	7.9	7.9	7.9	75	3.7	2	5	248	0.0	1014.9	0	0.000	0.0
20091126 06:50	7.8	7.8	7.8	75	3.7	0	3	248	0.0	1015.0	0	0.000	0.0
20091126 06:55	7.7	7.7	7.7	75	3.6	2	6	248	0.0	1015.0	0	0.000	0.0
20091126 07:00	7.7	7.7	7.7	76	3.7	5	8	202	0.0	1015.1	0	0.025	0.0
20091126 07:05	7.8	7.8	7.8	76	3.8	5	8	202	0.0	1015.2	0	0.000	0.0
20091126 07:10	7.8	7.8	7.8	76	3.9	5	8	225	0.0	1015.3	0	0.000	0.0
20091126 07:15	7.9	6.9	7.9	76	3.9	6	11	225	0.0	1015.3	0	0.000	0.0
20091126 07:20	8.0	6.7	8.0	76	4.0	8	16	270	0.0	1015.2	0	0.000	0.0
20091126 07:25	8.2	6.0	8.2	76	4.2	13	24	270	0.0	1015.1	0	0.000	0.0
20091126 07:30	8.3	6.4	8.3	76	4.3	11	19	292	0.0	1015.0	0	0.000	0.0
20091126 07:35	8.3	6.4	8.3	76	4.4	11	19	292	0.0	1015.1	0	0.000	0.0
20091126 07:40	8.4	6.8	8.4	76	4.4	10	21	292	0.0	1015.2	0	0.000	0.0
20091126 07:45	8.2	6.9	8.2	76	4.2	8	14	292	0.0	1015.3	0	0.000	0.0
20091126 07:50	8.1	6.5	8.1	77	4.3	10	19	292	0.0	1015.4	0	0.000	0.0
20091126 07:55	8.1	6.4	8.1	77	4.3	10	16	292	0.0	1015.4	1	0.000	0.0
20091126 08:00	8.1	6.4	8.1	77	4.3	10	14	292	0.0	1015.3	5	0.025	0.0
20091126 08:05	8.1	6.4	8.1	77	4.3	10	18	270	0.0	1015.4	8	0.000	0.0
20091126 08:10	8.2	6.5	8.2	77	4.4	10	23	270	0.0	1015.5	13	0.000	0.0
20091126 08:15	8.4	6.8	8.4	76	4.4	10	19	270	0.0	1015.6	19	0.000	0.0
20091126 08:20	8.6	6.4	8.6	75	4.4	13	21	248	0.0	1015.6	23	0.000	0.0
20091126 08:25	8.7	6.8	8.7	75	4.5	11	23	270	0.0	1015.5	28	0.000	0.0
20091126 08:30	8.6	7.4	8.6	76	4.6	8	14	270	0.0	1015.6	32	0.000	0.0
20091126 08:35	8.6	6.8	8.6	75	4.4	11	19	270	0.0	1015.6	39	0.000	0.0
20091126 08:40	8.6	7.4	8.6	76	4.6	8	16	270	0.0	1015.7	47	0.000	0.0
20091126 08:45	8.7	8.7	8.7	76	4.7	5	10	248	0.0	1015.8	60	0.000	0.0
20091126 08:50	8.7	8.7	8.7	76	4.7	3	8	225	0.0	1015.8	59	0.000	0.0
20091126 08:55	8.7	8.7	8.7	76	4.7	5	11	248	0.0	1015.8	46	0.000	0.0
20091126 09:00	8.7	8.7	8.7	76	4.7	5	11	270	0.0	1015.9	53	0.025	0.0
20091126 09:05	8.8	8.0	8.8	75	4.6	6	13	248	0.0	1015.9	73	0.000	0.0
20091126 09:10	8.9	8.2	8.9	75	4.8	6	16	225	0.0	1015.8	75	0.000	0.0
20091126 09:15	9.1	7.6	9.1	74	4.7	10	18	248	0.0	1015.9	55	0.000	0.0
20091126 09:20	9.2	8.4	9.2	74	4.8	6	18	248	0.0	1015.8	57	0.000	0.0
20091126 09:25	9.2	8.1	9.2	74	4.8	8	16	248	0.0	1015.8	72	0.000	0.0
20091126 09:30	9.2	8.5	9.2	74	4.8	6	16	248	0.0	1015.8	104	0.000	0.0
20091126 09:35	9.4	8.0	9.4	74	5.0	10	21	248	0.0	1016.0	116	0.000	0.0
20091126 09:40	9.5	8.1	9.5	73	4.9	10	21	248	0.0	1016.0	99	0.000	0.0
20091126 09:45	9.6	8.2	9.6	73	5.0	10	18	248	0.0	1016.0	99	0.000	0.0
20091126 09:50	9.6	7.7	9.6	73	5.0	13	21	270	0.0	1016.0	89	0.000	0.0
20091126 09:55	9.6	8.0	9.6	73	5.0	11	19	270	0.0	1016.1	100	0.000	0.0
20091126 10:00	9.7	7.8	9.7	73	5.1	13	24	248	0.0	1016.2	97	0.076	0.0
20091126 10:05	9.7	8.0	9.7	73	5.1	11	24	248	0.0	1016.1	98	0.000	0.0
20091126 10:10	9.7	7.6	9.7	73	5.1	14	24	270	0.0	1016.1	100	0.000	0.4
20091126 10:15	9.7	7.6	9.7	73	5.1	14	24	248	0.0	1016.1	90	0.000	0.5
20091126 10:20	9.7	8.0	9.7	73	5.1	11	21	270	0.0	1016.1	107	0.000	0.6
20091126 10:25	9.7	7.6	9.7	73	5.1	14	21	270	0.0	1016.1	127	0.000	0.6
20091126 10:30	9.8	7.6	9.8	72	5.0	16	27	270	0.0	1016.1	134	0.000	0.6
20091126 10:35	10.0	10.0	10.0	72	5.2	13	23	270	0.0	1016.0	136	0.000	0.7
20091126 10:40	10.1	10.1	10.1	72	5.2	13	21	270	0.0	1016.0	118	0.000	0.7
20091126 10:45	10.2	10.2	10.2	71	5.1	14	24	270	0.0	1016.1	107	0.000	0.7
20091126 10:50	10.2	10.2	10.2	71	5.2	13	26	270	0.0	1016.1	106	0.000	0.7
20091126 10:55	10.2	10.2	10.2	71	5.2	11	19	270	0.0	1016.0	89	0.000	0.7
20091126 11:00	10.2	10.2	10.2	71	5.1	13	19	270	0.0	1016.1	105	0.102	0.8
20091126 11:05	10.2	10.2	10.2	71	5.1	13	21	248	0.0	1016.2	126	0.000	0.8
20091126 11:10	10.3	10.3	10.3	71	5.3	11	19	270	0.0	1016.0	165	0.000	0.9
20091126 11:15	10.7	10.7	10.7	70	5.5	13	27	270	0.0	1015.9	373	0.000	0.9
20091126 11:20	10.9	10.9	10.9	68	5.3	18	27	270	0.0	1015.9	298	0.000	0.9
20091126 11:25	11.1	11.1	11.1	68	5.4	14	26	270	0.0	1015.9	204	0.000	0.8
20091126 11:30	11.0	11.0	11.0	69	5.5	14	24	270	0.0	1015.9	170	0.000	0.9
20091126 11:35	11.2	11.2	11.2	68	5.5	14	26	270	0.0	1015.8	232	0.000	0.9
20091126 11:40	11.1	11.1	11.1	68	5.4	13	23	270	0.0	1015.8	204	0.000	0.8
20091126 11:45	10.9	10.9	10.9	68	5.3	14	29	248	0.0	1015.9	152	0.000	0.8
20091126 11:50	10.8	10.8	10.8	68	5.2	13	23	270	0.0	1015.8	140	0.000	0.8
20091126 11:55	10.8	10.8	10.8	68	5.2	16	24	270	0.0	1015.8	280	0.000	0.9
20091126 12:00	10.8	10.8	10.8	68	5.2	14	26	270	0.0	1015.8	168	0.152	0.8
20091126 12:05	10.8	10.8	10.8	68	5.1	14	27	270	0.0	1015.8	157	0.000	0.8
20091126 12:10	10.9	10.9	10.9	68	5.2	13	23	270	0.0	1015.8	326	0.000	0.9
20091126 12:15	11.2	11.2	11.2	67	5.3	16	29	270	0.0	1015.8	369	0.000	1.0
20091126 12:20	11.3	11.3	11.3	65	5.0	16	27	270	0.0	1015.6	210	0.000	0.9
20091126 12:25	11.2	11.2	11.2	66	5.1	18	29	270	0.0	1015.5	212	0.000	0.9
20091126 12:30	11.1	11.1	11.1	65	4.8	18	27	270	0.0	1015.5	144	0.000	0.6
20091126 12:35	10.9	10.9	10.9	66	4.8	14	26	270	0.0	1015.5	105	0.000	0.5
20091126 12:40	10.8	10.8	10.8	67	4.9	14	24	270	0.0	1015.5	119	0.000	0.5
20091126 12:45	10.7	10.7	10.7	67	4.8	13	23	270	0.0	1015.3	123	0.000	0.6
20091126 12:50	10.7	10.7	10.7	67	4.8	13	21	270	0.0	1015.3	110	0.000	0.6
20091126 12:55	10.6	10.6	10.6	68	5.0	14	24	292	0.0	1015.3	142	0.000	0.7
20091126 13:00	10.7	10.7	10.7	68	5.1	11	21	292	0.0	1015.2	211	0.152	0.8
20091126 13:05	10.9	10.9	10.9	66	4.8	13	19	292	0.0	1015.1	241	0.000	0.8
20091126 13:10	11.0	11.0	11.0	66	4.9	11	19	270	0.0	1015.0	159	0.000	0.6
20091126 13:15	10.9	10.9	10.9	64	4.3	14	23	270	0.0	1015.0	131	0.000	0.6
20091126 13:20	10.7	10.7	10.7	64	4.2	11	19	292	0.0	1015.0	83	0.000	0.1
20091126 13:25	10.6	10.6	10.6	64	4.0	11	26	270	0.0	1015.0	62	0.000	0.0
20091126 13:30	10.4	10.4	10.4	64	3.9	13	26	270	0.0	1015.0	46	0.000	0.0
20091126 13:35	10.3	10.3	10.3	65	4.0	13	21	292	0.0	1015.0	40	0.000	0.0
20091126 13:40	10.2	10.2	10.2	65	3.9	11	23	292	0.0	1015.1	46	0.000	0.0
20091126 13:45	10.2	10.2	10.2	65	3.9	13	21	292	0.0	1015.1	45	0.000	0.0
20091126 13:50	10.1	10.1	10.1	65	3.8	10	16	292	0.0	1015.0	37	0.000	0.0
20091126 13:55	10.1	10.1	10.1	65	3.8	10	16	292	0.0	1015.0	34	0.000	0.0
20091126 14:00	10.0	10.0	10.0	65	3.7	10	21	292	0.0	1015.0	32	0.076	0.0
20091126 14:05	10.0	10.0	10.0	66	3.9	10	18	292	0.0	1014.9	34	0.000	0.0
20091126 14:10	10.0	10.0	10.0	67	4.2	8	18	292	0.0	1014.9	44	0.000	0.0
20091126 14:15	9.9	8.9	9.9	67	4.1	8	19	292	0.0	1014.9	35	0.000	0.0
20091126 14:20	9.9	8.4	9.9	66	3.9	11	21	292	0.0	1014.8	39	0.000	0.0
20091126 14:25	9.9	9.3	9.9	67	4.1	6	13	270	0.0	1014.8	50	0.000	0.0
20091126 14:30	9.9	9.2	9.9	67	4.0	6	16	270	0.0	1014.8	36	0.000	0.0
20091126 14:35	9.9	9.2	9.9	67	4.0	6	14	270	0.0	1014.9	21	0.000	0.0
20091126 14:40	9.8	8.8	9.8	66	3.8	8	18	270	0.0	1014.8	18	0.000	0.0
20091126 14:45	9.8	9.1	9.8	67	3.9	6	11	270	0.0	1014.9	14	0.000	0.0
20091126 14:50	9.7	9.1	9.7	68	4.1	6	16	270	0.0	1014.9	14	0.000	0.0
20091126 14:55	9.7	8.4	9.7	67	3.9	10	18	248	0.0	1014.9	15	0.000	0.0
20091126 15:00	9.7	8.4	9.7	67	3.9	10	14	270	0.0	1015.0	13	0.051	0.0
20091126 15:05	9.7	8.3	9.7	67	3.8	10	18	270	0.0	1015.1	11	0.000	0.0
20091126 15:10	9.6	7.7	9.6	67	3.8	13	21	270	0.0	1015.1	13	0.000	0.0
20091126 15:15	9.6	8.2	9.6	67	3.7	10	19	248	0.0	1015.1	11	0.000	0.0
20091126 15:20	9.6	8.2	9.6	68	3.9	10	16	270	0.0	1015.1	11	0.000	0.0
20091126 15:25	9.6	7.9	9.6	67	3.7	11	21	270	0.0	1015.0	8	0.000	0.0
20091126 15:30	9.5	9.5	9.5	68	3.9	5	11	270	0.0	1015.1	6	0.000	0.0
20091126 15:35	9.4	7.8	9.4	68	3.8	11	19	248	0.0	1015.2	1	0.000	0.0
20091126 15:40	9.4	8.0	9.4	69	4.0	10	18	270	0.0	1015.1	1	0.000	0.0
20091126 15:45	9.3	8.6	9.3	69	3.9	6	11	270	0.0	1015.1	5	0.000	0.0
20091126 15:50	9.2	9.2	9.2	70	4.0	5	10	270	0.0	1015.1	1	0.000	0.0
20091126 15:55	9.2	9.2	9.2	70	4.0	5	8	248	0.0	1015.0	1	0.000	0.0
20091126 16:00	9.1	8.3	9.1	71	4.1	6	16	248	0.0	1015.2	0	0.025	0.0
20091126 16:05	9.1	7.6	9.1	70	3.9	10	18	270	0.0	1015.2	0	0.000	0.0
20091126 16:10	9.1	7.6	9.1	71	4.1	10	18	248	0.0	1015.2	0	0.000	0.0
20091126 16:15	9.1	7.4	9.1	71	4.1	11	21	248	0.0	1015.2	0	0.000	0.0
20091126 16:20	9.1	7.9	9.1	71	4.1	8	18	270	0.0	1015.2	0	0.000	0.0
20091126 16:25	9.1	7.6	9.1	71	4.1	10	19	248	0.0	1015.2	0	0.000	0.0
20091126 16:30	9.0	7.8	9.0	72	4.2	8	16	248	0.0	1015.2	0	0.000	0.0
20091126 16:35	8.9	8.2	8.9	72	4.2	6	16	270	0.0	1015.2	0	0.000	0.0
20091126 16:40	8.9	8.2	8.9	72	4.2	6	11	270	0.0	1015.1	0	0.000	0.0
20091126 16:45	8.9	8.2	8.9	72	4.2	6	11	248	0.0	1015.2	0	0.000	0.0
20091126 16:50	8.9	8.1	8.9	72	4.1	6	11	225	0.0	1015.2	0	0.000	0.0
20091126 16:55	8.9	7.7	8.9	72	4.1	8	14	225	0.0	1015.3	0	0.000	0.0
20091126 17:00	8.9	7.8	8.9	72	4.2	8	18	225	0.0	1015.3	0	0.025	0.0
20091126 17:05	8.9	8.2	8.9	73	4.4	6	10	225	0.0	1015.3	0	0.000	0.0
20091126 17:10	8.9	7.7	8.9	73	4.3	8	21	225	0.0	1015.2	0	0.000	0.0
20091126 17:15	8.8	8.0	8.8	73	4.3	6	14	270	0.0	1015.2	0	0.000	0.0
20091126 17:20	8.8	7.6	8.8	73	4.3	8	16	248	0.0	1015.2	0	0.000	0.0
20091126 17:25	8.8	7.3	8.8	73	4.3	10	16	225	0.0	1015.1	0	0.000	0.0
20091126 17:30	8.8	7.2	8.8	73	4.2	10	19	225	0.0	1015.1	0	0.000	0.0
20091126 17:35	8.8	7.2	8.8	73	4.2	10	14	248	0.0	1015.0	0	0.000	0.0
20091126 17:40	8.8	7.6	8.8	73	4.2	8	16	225	0.0	1015.1	0	0.000	0.0
20091126 17:45	8.8	7.6	8.8	73	4.2	8	18	225	0.0	1015.1	0	0.000	0.0
20091126 17:50	8.8	8.0	8.8	73	4.2	6	14	225	0.0	1015.1	0	0.000	0.0
20091126 17:55	8.7	7.9	8.7	74	4.3	6	10	225	0.0	1015.2	0	0.000	0.0
20091126 18:00	8.7	7.8	8.7	74	4.3	6	11	225	0.0	1015.3	0	0.025	0.0
20091126 18:05	8.7	7.4	8.7	74	4.3	8	13	248	0.0	1015.1	0	0.000	0.0
20091126 18:10	8.7	8.7	8.7	74	4.3	5	11	225	0.0	1015.1	0	0.000	0.0
20091126 18:15	8.6	7.7	8.6	75	4.4	6	10	225	0.0	1015.2	0	0.000	0.0
20091126 18:20	8.5	7.6	8.5	76	4.5	6	11	225	0.0	1015.2	0	0.000	0.0
20091126 18:25	8.4	7.5	8.4	76	4.4	6	11	225	0.0	1015.2	0	0.000	0.0
20091126 18:30	8.3	7.4	8.3	76	4.3	6	11	202	0.0	1015.2	0	0.000	0.0
20091126 18:35	8.3	8.3	8.3	77	4.5	5	10	202	0.0	1015.2	0	0.000	0.0
20091126 18:40	8.2	7.3	8.2	77	4.4	6	10	225	0.0	1015.2	0	0.000	0.0
20091126 18:45	8.2	7.3	8.2	77	4.4	6	11	225	0.0	1015.2	0	0.000	0.0
20091126 18:50	8.2	7.3	8.2	77	4.4	6	11	202	0.0	1015.2	0	0.000	0.0
20091126 18:55	8.2	8.2	8.2	77	4.4	3	8	202	0.0	1015.1	0	0.000	0.0
20091126 19:00	8.1	7.2	8.1	78	4.5	6	10	202	0.0	1015.2	0	0.025	0.0
20091126 19:05	8.1	8.1	8.1	78	4.5	5	10	225	0.0	1014.9	0	0.000	0.0
20091126 19:10	7.9	7.9	7.9	79	4.5	5	10	202	0.0	1015.0	0	0.000	0.0
20091126 19:15	7.9	7.9	7.9	79	4.5	5	8	202	0.0	1015.0	0	0.000	0.0
20091126 19:20	7.8	6.8	7.8	79	4.4	6	11	202	0.0	1015.0	0	0.000	0.0
20091126 19:25	7.7	6.7	7.7	79	4.3	6	11	202	0.0	1015.1	0	0.000	0.0
20091126 19:30	7.7	6.7	7.7	79	4.3	6	10	225	0.0	1015.2	0	0.000	0.0
20091126 19:35	7.6	7.6	7.6	80	4.4	5	8	225	0.0	1015.2	0	0.000	0.0
20091126 19:40	7.6	7.6	7.6	80	4.4	5	10	225	0.0	1015.2	0	0.000	0.0
20091126 19:45	7.6	6.5	7.6	80	4.3	6	10	225	0.0	1015.2	0	0.000	0.0
20091126 19:50	7.5	6.5	7.5	80	4.3	6	10	225	0.0	1015.2	0	0.000	0.0
20091126 19:55	7.4	7.4	7.4	80	4.2	5	8	225	0.0	1015.2	0	0.000	0.0
20091126 20:00	7.4	7.4	7.4	81	4.4	5	10	202	0.0	1015.2	0	0.025	0.0
20091126 20:05	7.4	7.4	7.4	81	4.4	5	8	202	0.0	1015.1	0	0.000	0.0
20091126 20:10	7.4	7.4	7.4	80	4.2	5	8	202	0.0	1015.0	0	0.000	0.0
20091126 20:15	7.5	6.5	7.5	80	4.3	6	10	202	0.0	1015.0	0	0.000	0.0
20091126 20:20	7.5	7.5	7.5	80	4.3	3	10	202	0.0	1015.0	0	0.000	0.0
20091126 20:25	7.6	7.6	7.6	80	4.3	5	8	202	0.0	1014.9	0	0.000	0.0
20091126 20:30	7.6	7.6	7.6	80	4.3	5	10	202	0.0	1015.0	0	0.000	0.0
20091126 20:35	7.6	7.6	7.6	80	4.3	5	8	202	0.0	1014.9	0	0.000	0.0
20091126 20:40	7.6	7.6	7.6	80	4.3	5	8	202	0.0	1014.9	0	0.000	0.0
20091126 20:45	7.5	7.5	7.5	80	4.3	3	6	225	0.0	1014.9	0	0.000	0.0
20091126 20:50	7.5	7.5	7.5	80	4.3	2	5	225	0.0	1014.9	0	0.000	0.0
20091126 20:55	7.4	7.4	7.4	80	4.2	0	3	225	0.0	1014.9	0	0.000	0.0
20091126 21:00	7.3	7.3	7.3	80	4.1	0	2	225	0.0	1015.0	0	0.025	0.0
20091126 21:05	7.2	7.2	7.2	80	4.0	0	0	-100000	0.0	1014.7	0	0.000	0.0
20091126 21:10	7.1	7.1	7.1	81	4.0	0	0	-100000	0.0	1014.8	0	0.000	0.0
20091126 21:15	6.9	6.9	6.9	81	3.9	0	0	-100000	0.0	1014.9	0	0.000	0.0
20091126 21:20	6.7	6.7	6.7	82	3.9	0	0	-100000	0.0	1014.8	0	0.000	0.0
20091126 21:25	6.6	6.6	6.6	82	3.8	0	0	-100000	0.0	1014.8	0	0.000	0.0
20091126 21:30	6.4	6.4	6.4	82	3.6	0	0	-100000	0.0	1014.8	0	0.000	0.0
20091126 21:35	6.3	6.3	6.3	83	3.7	0	3	225	0.0	1014.8	0	0.000	0.0
20091126 21:40	6.2	6.2	6.2	83	3.6	0	2	225	0.0	1014.8	0	0.000	0.0
20091126 21:45	6.1	6.1	6.1	83	3.4	0	0	-100000	0.0	1014.8	0	0.000	0.0
20091126 21:50	5.9	5.9	5.9	83	3.3	0	2	225	0.0	1014.6	0	0.000	0.0
20091126 21:55	5.8	5.8	5.8	84	3.3	0	2	225	0.0	1014.5	0	0.000	0.0
20091126 22:00	5.8	5.8	5.8	84	3.3	0	2	225	0.0	1014.7	0	0.000	0.0
20091126 22:05	5.7	5.7	5.7	84	3.2	0	0	-100000	0.0	1014.5	0	0.000	0.0
20091126 22:10	5.7	5.7	5.7	85	3.3	0	5	225	0.0	1014.5	0	0.000	0.0
20091126 22:15	5.6	5.6	5.6	85	3.2	0	2	225	0.0	1014.5	0	0.000	0.0
20091126 22:20	5.4	5.4	5.4	85	3.1	2	5	225	0.0	1014.5	0	0.000	0.0
20091126 22:25	5.3	5.3	5.3	85	3.0	3	8	225	0.0	1014.5	0	0.000	0.0
20091126 22:30	5.3	5.3	5.3	85	3.0	5	8	158	0.0	1014.4	0	0.000	0.0
20091126 22:35	5.2	5.2	5.2	85	2.9	3	6	158	0.0	1014.3	0	0.000	0.0
20091126 22:40	5.2	5.2	5.2	85	2.9	2	3	158	0.0	1014.4	0	0.000	0.0
20091126 22:45	5.1	5.1	5.1	86	2.9	2	3	158	0.0	1014.4	0	0.000	0.0
20091126 22:50	5.0	5.0	5.0	91	3.7	0	2	158	0.0	1014.4	0	0.000	0.0
20091126 22:55	4.9	4.9	4.9	86	2.8	3	6	158	0.0	1014.4	0	0.000	0.0
20091126 23:00	4.8	4.8	4.8	87	2.9	2	5	158	0.0	1014.4	0	0.000	0.0
20091126 23:05	4.8	4.8	4.8	87	2.8	0	3	158	0.0	1014.2	0	0.000	0.0
20091126 23:10	4.7	4.7	4.7	87	2.7	0	0	-100000	0.0	1014.1	0	0.000	0.0
20091126 23:15	4.6	4.6	4.6	86	2.4	0	0	-100000	0.0	1014.2	0	0.000	0.0
20091126 23:20	4.4	4.4	4.4	87	2.4	0	0	-100000	0.0	1014.1	0	0.000	0.0
20091126 23:25	4.2	4.2	4.2	87	2.3	0	2	158	0.0	1014.2	0	0.000	0.0
20091126 23:30	4.1	4.1	4.1	87	2.1	3	6	158	0.0	1014.3	0	0.000	0.0
20091126 23:35	4.1	4.1	4.1	88	2.3	3	8	158	0.0	1014.3	0	0.000	0.0
20091126 23:40	4.2	4.2	4.2	89	2.5	2	6	158	0.0	1014.1	0	0.000	0.0
20091126 23:45	4.2	4.2	4.2	89	2.6	2	5	158	0.0	1014.1	0	0.000	0.0
20091126 23:50	4.2	4.2	4.2	89	2.6	0	0	-100000	0.0	1014.1	0	0.000	0.0
20091126 23:55	4.2	4.2	4.2	88	2.4	0	2	158	0.0	1014.1	0	0.000	0.0



Please note the license to use and transfer of this data:
http://creativecommons.org/licenses/by-nc-sa/3.0/deed.en

Bitte beachten sie die Lizenz zur Verwertung und Weitergabe der Daten:
http://creativecommons.org/licenses/by-nc-sa/3.0/deed.de

zurück zur Übersicht der Archivdaten (Monats und Tagesdaten)

Cookies helfen bei der Bereitstellung von Inhalten. Durch die Nutzung dieser Seiten erklärst du dich damit einverstanden, dass Cookies auf deinem Rechner gespeichert werden. Weitere Information